createdAt,value
2022-08-22T00:00:20.288Z,24.41
2022-08-22T00:02:45.528Z,25.02
2022-08-22T00:02:53.685Z,25.04
2022-08-22T00:02:55.263Z,24.51
2022-08-22T00:02:55.811Z,24.43
2022-08-22T00:03:08.203Z,24.64
2022-08-22T00:03:16.217Z,24.39
2022-08-22T00:05:32.977Z,24.41
2022-08-22T00:07:59.554Z,24.30
2022-08-22T00:10:26.082Z,24.36
2022-08-22T00:12:52.442Z,24.40
2022-08-22T00:15:42.108Z,24.36
2022-08-22T00:18:05.657Z,24.33
2022-08-22T00:20:32.144Z,24.45
2022-08-22T00:22:58.503Z,24.42
2022-08-22T00:25:26.119Z,24.48
2022-08-22T00:27:52.712Z,24.45
2022-08-22T00:30:19.068Z,24.47
2022-08-22T00:32:45.433Z,24.47
2022-08-22T00:35:11.797Z,24.45
2022-08-22T00:37:38.172Z,24.35
2022-08-22T00:40:04.558Z,24.33
2022-08-22T00:42:32.104Z,24.39
2022-08-22T00:44:58.708Z,24.40
2022-08-22T00:47:25.082Z,24.45
2022-08-22T00:49:51.464Z,24.45
2022-08-22T00:52:17.829Z,24.50
2022-08-22T00:54:44.182Z,24.47
2022-08-22T00:57:10.536Z,24.52
2022-08-22T00:59:36.888Z,24.44
2022-08-22T01:02:03.249Z,24.44
2022-08-22T01:04:29.613Z,24.47
2022-08-22T01:06:55.968Z,24.44
2022-08-22T01:09:22.349Z,24.42
2022-08-22T01:11:48.715Z,24.44
2022-08-22T01:14:15.077Z,24.40
2022-08-22T01:16:41.461Z,24.42
2022-08-22T01:19:07.807Z,24.41
2022-08-22T01:21:34.168Z,24.33
2022-08-22T01:24:00.542Z,24.26
2022-08-22T01:26:28.551Z,24.33
2022-08-22T01:28:54.971Z,24.32
2022-08-22T01:31:21.616Z,24.34
2022-08-22T01:33:48.866Z,24.43
2022-08-22T01:36:16.200Z,24.35
2022-08-22T01:38:42.701Z,24.36
2022-08-22T01:41:10.421Z,24.34
2022-08-22T01:43:58.746Z,24.36
2022-08-22T01:46:24.792Z,24.41
2022-08-22T01:48:51.147Z,24.47
2022-08-22T01:51:17.506Z,24.50
2022-08-22T01:53:43.863Z,24.38
2022-08-22T01:56:10.230Z,24.39
2022-08-22T01:58:36.582Z,24.40
2022-08-22T02:01:03.009Z,24.37
2022-08-22T02:03:29.387Z,24.38
2022-08-22T02:05:55.745Z,24.37
2022-08-22T02:08:22.113Z,24.38
2022-08-22T02:10:48.475Z,24.38
2022-08-22T02:13:14.837Z,24.38
2022-08-22T02:15:41.207Z,24.32
2022-08-22T02:18:10.340Z,24.14
2022-08-22T02:20:36.699Z,24.17
2022-08-22T02:23:03.055Z,24.21
2022-08-22T02:25:29.415Z,24.16
2022-08-22T02:27:55.798Z,24.21
2022-08-22T02:30:22.249Z,24.13
2022-08-22T02:32:48.601Z,24.19
2022-08-22T02:35:14.964Z,24.22
2022-08-22T02:37:41.325Z,24.19
2022-08-22T02:40:07.726Z,24.16
2022-08-22T02:42:34.137Z,24.07
2022-08-22T02:45:00.490Z,24.21
2022-08-22T02:47:26.845Z,24.24
2022-08-22T02:49:53.205Z,24.28
2022-08-22T02:52:22.201Z,24.28
2022-08-22T02:54:48.586Z,24.20
2022-08-22T02:57:14.944Z,24.21
2022-08-22T02:59:41.306Z,24.18
2022-08-22T03:02:07.664Z,24.17
2022-08-22T03:04:34.035Z,24.20
2022-08-22T03:07:00.391Z,24.18
2022-08-22T03:09:26.740Z,24.07
2022-08-22T03:11:53.105Z,24.10
2022-08-22T03:14:19.455Z,24.15
2022-08-22T03:16:45.822Z,24.16
2022-08-22T03:19:18.457Z,24.20
2022-08-22T03:21:45.309Z,24.16
2022-08-22T03:24:11.663Z,24.17
2022-08-22T03:26:38.042Z,24.16
2022-08-22T03:29:04.414Z,24.19
2022-08-22T03:31:30.770Z,24.17
2022-08-22T03:33:57.131Z,24.26
2022-08-22T03:36:23.497Z,24.21
2022-08-22T03:38:49.861Z,24.15
2022-08-22T03:41:16.229Z,24.12
2022-08-22T03:43:42.593Z,24.10
2022-08-22T03:46:08.970Z,24.02
2022-08-22T03:48:35.326Z,24.13
2022-08-22T03:51:03.914Z,24.11
2022-08-22T03:53:30.273Z,24.05
2022-08-22T03:55:56.641Z,24.05
2022-08-22T03:58:28.048Z,23.96
2022-08-22T04:00:55.980Z,23.95
2022-08-22T04:03:23.145Z,24.02
2022-08-22T04:05:49.505Z,23.95
2022-08-22T04:08:24.257Z,23.91
2022-08-22T04:10:52.450Z,24.05
2022-08-22T04:13:18.804Z,23.99
2022-08-22T04:15:51.097Z,24.05
2022-08-22T04:18:17.465Z,24.08
2022-08-22T04:20:44.837Z,24.12
2022-08-22T04:23:11.201Z,24.12
2022-08-22T04:25:37.560Z,24.11
2022-08-22T04:28:03.919Z,24.15
2022-08-22T04:30:30.292Z,24.16
2022-08-22T04:32:56.651Z,24.09
2022-08-22T04:35:23.015Z,24.05
2022-08-22T04:37:49.382Z,24.06
2022-08-22T04:40:15.832Z,24.20
2022-08-22T04:42:42.277Z,24.14
2022-08-22T04:45:08.648Z,24.07
2022-08-22T04:47:35.004Z,24.12
2022-08-22T04:50:01.356Z,24.10
2022-08-22T04:52:29.594Z,24.16
2022-08-22T04:54:56.090Z,24.18
2022-08-22T04:57:22.468Z,24.18
2022-08-22T04:59:48.836Z,24.26
2022-08-22T05:02:17.533Z,24.24
2022-08-22T05:04:43.885Z,24.24
2022-08-22T05:07:10.255Z,24.18
2022-08-22T05:09:36.628Z,24.31
2022-08-22T05:12:02.993Z,24.33
2022-08-22T05:14:29.354Z,24.36
2022-08-22T05:16:55.724Z,24.38
2022-08-22T05:19:29.686Z,24.37
2022-08-22T05:21:58.210Z,24.43
2022-08-22T05:24:28.089Z,24.44
2022-08-22T05:26:54.620Z,24.48
2022-08-22T05:29:20.995Z,24.50
2022-08-22T05:31:47.360Z,24.49
2022-08-22T05:34:13.720Z,24.52
2022-08-22T05:36:40.094Z,24.52
2022-08-22T05:39:06.467Z,24.52
2022-08-22T05:41:32.834Z,24.53
2022-08-22T05:43:59.196Z,24.52
2022-08-22T05:46:27.360Z,24.53
2022-08-22T05:48:53.765Z,24.50
2022-08-22T05:51:20.128Z,24.52
2022-08-22T05:53:46.488Z,24.53
2022-08-22T05:56:12.847Z,24.53
2022-08-22T05:58:39.227Z,24.57
2022-08-22T06:01:05.595Z,24.57
2022-08-22T06:03:31.960Z,24.55
2022-08-22T06:05:58.343Z,24.60
2022-08-22T06:08:24.714Z,24.58
2022-08-22T06:10:51.067Z,24.58
2022-08-22T06:13:17.419Z,24.64
2022-08-22T06:15:50.897Z,24.64
2022-08-22T06:18:17.269Z,24.66
2022-08-22T06:20:43.636Z,24.65
2022-08-22T06:23:09.992Z,24.68
2022-08-22T06:25:36.355Z,24.68
2022-08-22T06:28:02.716Z,24.71
2022-08-22T06:30:29.071Z,24.67
2022-08-22T06:32:59.407Z,24.68
2022-08-22T06:35:26.846Z,24.69
2022-08-22T06:37:53.237Z,24.74
2022-08-22T06:40:19.741Z,24.70
2022-08-22T06:42:46.191Z,24.74
2022-08-22T06:45:12.560Z,24.71
2022-08-22T06:47:38.923Z,24.70
2022-08-22T06:50:05.800Z,24.70
2022-08-22T06:52:32.159Z,24.75
2022-08-22T06:54:58.525Z,24.74
2022-08-22T06:57:25.167Z,24.80
2022-08-22T06:59:51.531Z,24.79
2022-08-22T07:02:17.891Z,24.80
2022-08-22T07:04:44.908Z,24.84
2022-08-22T07:07:11.255Z,24.81
2022-08-22T07:09:37.609Z,24.84
2022-08-22T07:12:03.975Z,24.85
2022-08-22T07:14:30.335Z,24.85
2022-08-22T07:16:56.691Z,24.87
2022-08-22T07:19:23.041Z,24.92
2022-08-22T07:21:49.406Z,24.89
2022-08-22T07:24:15.774Z,24.94
2022-08-22T07:26:42.147Z,24.92
2022-08-22T07:29:11.479Z,25.00
2022-08-22T07:31:37.976Z,25.03
2022-08-22T07:34:04.773Z,24.99
2022-08-22T07:36:31.906Z,25.00
2022-08-22T07:38:58.526Z,25.05
2022-08-22T07:41:24.908Z,25.03
2022-08-22T07:43:51.267Z,25.03
2022-08-22T07:46:17.621Z,25.04
2022-08-22T07:49:05.876Z,25.05
2022-08-22T07:51:30.323Z,25.18
2022-08-22T07:54:00.361Z,25.12
2022-08-22T07:56:27.221Z,25.18
2022-08-22T07:58:53.604Z,25.14
2022-08-22T08:01:20.034Z,25.21
2022-08-22T08:03:46.481Z,25.18
2022-08-22T08:06:12.840Z,25.22
2022-08-22T08:08:39.192Z,25.24
2022-08-22T08:11:05.558Z,25.21
2022-08-22T08:13:31.928Z,25.26
2022-08-22T08:15:58.286Z,25.23
2022-08-22T08:18:24.636Z,25.28
2022-08-22T08:20:51.004Z,25.28
2022-08-22T08:23:17.378Z,25.27
2022-08-22T08:25:53.754Z,25.28
2022-08-22T08:28:20.257Z,25.33
2022-08-22T08:30:47.928Z,25.34
2022-08-22T08:33:24.627Z,25.28
2022-08-22T08:36:02.265Z,25.35
2022-08-22T08:38:30.052Z,25.29
2022-08-22T08:40:56.410Z,25.32
2022-08-22T08:43:22.784Z,25.34
2022-08-22T08:45:49.137Z,25.35
2022-08-22T08:48:15.497Z,25.38
2022-08-22T08:50:43.295Z,25.38
2022-08-22T08:53:09.718Z,25.43
2022-08-22T08:55:36.957Z,25.39
2022-08-22T08:58:07.058Z,25.41
2022-08-22T09:00:33.576Z,25.43
2022-08-22T09:02:59.931Z,25.41
2022-08-22T09:05:32.807Z,25.45
2022-08-22T09:07:59.289Z,25.44
2022-08-22T09:10:28.729Z,25.46
2022-08-22T09:13:11.326Z,25.50
2022-08-22T09:15:39.014Z,25.40
2022-08-22T09:18:05.407Z,25.46
2022-08-22T09:20:32.901Z,25.51
2022-08-22T09:22:59.256Z,25.48
2022-08-22T09:25:25.626Z,25.44
2022-08-22T09:27:51.986Z,25.47
2022-08-22T09:30:18.341Z,25.47
2022-08-22T09:32:54.167Z,25.42
2022-08-22T09:35:20.519Z,25.44
2022-08-22T09:37:48.892Z,25.43
2022-08-22T09:40:21.266Z,25.45
2022-08-22T09:42:51.197Z,25.42
2022-08-22T09:45:18.208Z,25.41
2022-08-22T09:47:44.571Z,25.39
2022-08-22T09:50:10.922Z,25.41
2022-08-22T09:52:37.305Z,25.43
2022-08-22T09:55:03.692Z,25.45
2022-08-22T09:57:34.549Z,25.44
2022-08-22T10:00:00.908Z,25.47
2022-08-22T10:02:28.505Z,25.51
2022-08-22T10:04:56.467Z,25.52
2022-08-22T10:07:24.578Z,25.53
2022-08-22T10:09:53.584Z,25.46
2022-08-22T10:12:24.801Z,25.49
2022-08-22T10:14:51.357Z,25.45
2022-08-22T10:17:21.948Z,25.49
2022-08-22T10:19:48.537Z,25.45
2022-08-22T10:22:15.163Z,25.47
2022-08-22T10:24:44.020Z,25.46
2022-08-22T10:27:10.539Z,25.47
2022-08-22T10:29:36.911Z,25.44
2022-08-22T10:32:10.815Z,25.46
2022-08-22T10:34:41.016Z,25.45
2022-08-22T10:37:08.644Z,25.46
2022-08-22T10:39:36.713Z,25.48
2022-08-22T10:42:03.091Z,25.47
2022-08-22T10:44:29.479Z,25.45
2022-08-22T10:46:56.340Z,25.53
2022-08-22T10:49:28.749Z,25.50
2022-08-22T10:51:56.380Z,25.43
2022-08-22T10:54:24.754Z,25.45
2022-08-22T10:56:51.112Z,25.48
2022-08-22T10:59:18.936Z,25.51
2022-08-22T11:01:49.185Z,25.48
2022-08-22T11:04:15.563Z,25.50
2022-08-22T11:06:41.922Z,25.50
2022-08-22T11:09:11.148Z,25.49
2022-08-22T11:11:37.645Z,25.47
2022-08-22T11:14:04.357Z,25.47
2022-08-22T11:16:30.734Z,25.43
2022-08-22T11:19:14.610Z,25.45
2022-08-22T11:21:41.781Z,25.44
2022-08-22T11:24:08.171Z,25.45
2022-08-22T11:26:47.245Z,25.47
2022-08-22T11:29:14.549Z,25.49
2022-08-22T11:31:51.313Z,25.51
2022-08-22T11:34:20.554Z,25.49
2022-08-22T11:36:47.052Z,25.48
2022-08-22T11:39:18.362Z,25.48
2022-08-22T11:41:45.284Z,25.48
2022-08-22T11:44:18.861Z,25.46
2022-08-22T11:46:45.221Z,25.49
2022-08-22T11:49:11.584Z,25.50
2022-08-22T11:51:37.944Z,25.50
2022-08-22T11:54:05.312Z,25.49
2022-08-22T11:56:31.674Z,25.51
2022-08-22T11:58:58.048Z,25.49
2022-08-22T12:01:24.405Z,25.49
2022-08-22T12:03:53.985Z,25.51
2022-08-22T12:06:24.885Z,25.53
2022-08-22T12:08:51.238Z,25.51
2022-08-22T12:11:17.595Z,25.49
2022-08-22T12:13:44.207Z,25.51
2022-08-22T12:16:10.590Z,25.54
2022-08-22T12:18:37.387Z,25.56
2022-08-22T12:21:03.744Z,25.54
2022-08-22T12:23:48.991Z,25.55
2022-08-22T12:26:16.239Z,25.52
2022-08-22T12:28:42.780Z,25.52
2022-08-22T12:31:09.131Z,25.54
2022-08-22T12:33:36.136Z,25.51
2022-08-22T12:36:02.645Z,25.52
2022-08-22T12:38:34.766Z,25.54
2022-08-22T12:41:03.743Z,25.55
2022-08-22T12:43:35.346Z,25.54
2022-08-22T12:46:12.924Z,25.54
2022-08-22T12:48:39.817Z,25.54
2022-08-22T12:51:17.720Z,25.52
2022-08-22T12:53:44.738Z,25.54
2022-08-22T12:56:11.369Z,25.57
2022-08-22T12:58:37.722Z,25.61
2022-08-22T13:01:04.653Z,25.62
2022-08-22T13:03:32.800Z,25.62
2022-08-22T13:06:00.227Z,25.62
2022-08-22T13:08:26.977Z,25.65
2022-08-22T13:10:55.581Z,25.64
2022-08-22T13:13:23.634Z,25.66
2022-08-22T13:15:58.170Z,25.65
2022-08-22T13:18:30.470Z,25.64
2022-08-22T13:20:57.298Z,25.65
2022-08-22T13:23:24.477Z,25.65
2022-08-22T13:25:51.914Z,25.65
2022-08-22T13:28:18.259Z,25.70
2022-08-22T13:30:44.612Z,25.68
2022-08-22T13:33:14.606Z,25.70
2022-08-22T13:35:44.617Z,25.72
2022-08-22T13:38:23.808Z,25.71
2022-08-22T13:40:52.153Z,25.71
2022-08-22T13:43:18.548Z,25.71
2022-08-22T13:45:44.915Z,25.73
2022-08-22T13:48:11.387Z,25.73
2022-08-22T13:50:53.338Z,25.70
2022-08-22T13:53:20.355Z,25.74
2022-08-22T13:55:48.989Z,25.72
2022-08-22T13:58:15.661Z,25.72
2022-08-22T14:00:48.659Z,25.72
2022-08-22T14:03:23.785Z,25.77
2022-08-22T14:05:50.137Z,25.77
2022-08-22T14:08:19.629Z,25.74
2022-08-22T14:10:45.983Z,25.72
2022-08-22T14:13:21.411Z,25.71
2022-08-22T14:15:47.781Z,25.75
2022-08-22T14:18:18.494Z,25.76
2022-08-22T14:20:45.129Z,25.78
2022-08-22T14:23:13.955Z,25.76
2022-08-22T14:25:40.333Z,25.76
2022-08-22T14:28:09.502Z,25.73
2022-08-22T14:30:36.033Z,25.75
2022-08-22T14:33:02.522Z,25.73
2022-08-22T14:35:34.787Z,25.73
2022-08-22T14:38:03.765Z,25.75
2022-08-22T14:40:43.453Z,25.77
2022-08-22T14:43:09.985Z,25.75
2022-08-22T14:45:36.901Z,25.76
2022-08-22T14:48:29.711Z,25.74
2022-08-22T14:50:49.658Z,25.74
2022-08-22T14:53:19.522Z,25.71
2022-08-22T14:55:48.788Z,25.73
2022-08-22T14:58:27.743Z,25.74
2022-08-22T15:00:54.229Z,25.72
2022-08-22T15:03:20.596Z,25.74
2022-08-22T15:05:46.943Z,25.70
2022-08-22T15:08:13.304Z,25.69
2022-08-22T15:10:42.324Z,25.70
2022-08-22T15:13:08.851Z,25.67
2022-08-22T15:15:49.356Z,25.67
2022-08-22T15:18:20.035Z,25.67
2022-08-22T15:20:52.139Z,25.68
2022-08-22T15:23:18.752Z,25.67
2022-08-22T15:25:46.902Z,25.68
2022-08-22T15:28:14.357Z,25.68
2022-08-22T15:30:46.632Z,25.66
2022-08-22T15:33:14.178Z,25.66
2022-08-22T15:35:40.532Z,25.66
2022-08-22T15:38:06.887Z,25.64
2022-08-22T15:40:33.240Z,25.64
2022-08-22T15:42:59.878Z,25.63
2022-08-22T15:45:26.888Z,25.66
2022-08-22T15:47:53.476Z,25.66
2022-08-22T15:50:19.842Z,25.64
2022-08-22T15:52:46.546Z,25.63
2022-08-22T15:55:31.373Z,25.60
2022-08-22T15:58:02.855Z,25.60
2022-08-22T16:00:29.287Z,25.62
2022-08-22T16:02:55.707Z,25.61
2022-08-22T16:05:22.083Z,25.61
2022-08-22T16:07:48.446Z,25.61
2022-08-22T16:10:14.805Z,25.62
2022-08-22T16:12:41.169Z,25.61
2022-08-22T16:15:07.527Z,25.63
2022-08-22T16:17:33.880Z,25.64
2022-08-22T16:20:00.347Z,25.65
2022-08-22T16:22:26.763Z,25.64
2022-08-22T16:24:53.128Z,25.67
2022-08-22T16:27:19.735Z,25.63
2022-08-22T16:29:46.091Z,25.65
2022-08-22T16:32:12.476Z,25.65
2022-08-22T16:34:38.850Z,25.65
2022-08-22T16:37:05.215Z,25.67
2022-08-22T16:39:31.584Z,25.67
2022-08-22T16:41:57.942Z,25.67
2022-08-22T16:44:24.313Z,25.68
2022-08-22T16:46:50.662Z,25.66
2022-08-22T16:49:17.038Z,25.72
2022-08-22T16:51:43.411Z,25.69
2022-08-22T16:54:09.771Z,25.68
2022-08-22T16:56:36.144Z,25.67
2022-08-22T16:59:19.309Z,25.70
2022-08-22T17:01:48.968Z,25.69
2022-08-22T17:04:15.377Z,25.68
2022-08-22T17:06:41.732Z,25.68
2022-08-22T17:09:08.079Z,25.68
2022-08-22T17:11:34.439Z,25.70
2022-08-22T17:14:00.853Z,25.65
2022-08-22T17:16:27.240Z,25.51
2022-08-22T17:18:53.604Z,25.71
2022-08-22T17:21:25.320Z,25.71
2022-08-22T17:23:52.115Z,25.72
2022-08-22T17:26:18.520Z,25.70
2022-08-22T17:28:44.921Z,25.65
2022-08-22T17:31:11.451Z,25.68
2022-08-22T17:33:37.823Z,25.69
2022-08-22T17:36:04.173Z,25.72
2022-08-22T17:38:31.512Z,25.70
2022-08-22T17:40:57.868Z,25.71
2022-08-22T17:43:24.220Z,25.70
2022-08-22T17:45:50.603Z,25.74
2022-08-22T17:48:16.952Z,25.74
2022-08-22T17:50:43.323Z,25.72
2022-08-22T17:53:09.694Z,25.74
2022-08-22T17:55:36.048Z,25.76
2022-08-22T17:58:03.335Z,25.73
2022-08-22T18:00:29.712Z,25.75
2022-08-22T18:02:56.151Z,25.80
2022-08-22T18:05:22.574Z,25.76
2022-08-22T18:07:48.941Z,25.76
2022-08-22T18:10:15.301Z,25.79
2022-08-22T18:12:41.668Z,25.73
2022-08-22T18:15:08.030Z,25.78
2022-08-22T18:17:34.409Z,25.75
2022-08-22T18:20:00.774Z,25.79
2022-08-22T18:22:27.130Z,25.74
2022-08-22T18:24:53.499Z,25.75
2022-08-22T18:27:30.069Z,25.72
2022-08-22T18:30:04.119Z,25.67
2022-08-22T18:32:30.476Z,25.76
2022-08-22T18:34:59.803Z,25.74
2022-08-22T18:37:29.108Z,25.77
2022-08-22T18:39:55.809Z,25.70
2022-08-22T18:42:22.205Z,25.71
2022-08-22T18:44:48.564Z,25.70
2022-08-22T18:47:14.920Z,25.71
2022-08-22T18:49:41.278Z,25.71
2022-08-22T18:52:07.713Z,25.69
2022-08-22T18:54:34.097Z,25.69
2022-08-22T18:57:00.448Z,25.68
2022-08-22T18:59:26.823Z,25.68
2022-08-22T19:01:53.843Z,25.67
2022-08-22T19:04:20.603Z,25.70
2022-08-22T19:06:46.989Z,25.68
2022-08-22T19:09:15.068Z,25.69
2022-08-22T19:11:42.258Z,25.79
2022-08-22T19:14:08.624Z,25.74
2022-08-22T19:16:35.000Z,25.75
2022-08-22T19:19:03.031Z,25.76
2022-08-22T19:21:29.409Z,25.74
2022-08-22T19:23:55.785Z,25.74
2022-08-22T19:26:22.149Z,25.75
2022-08-22T19:28:48.517Z,25.75
2022-08-22T19:31:16.565Z,25.78
2022-08-22T19:33:43.106Z,25.75
2022-08-22T19:36:09.469Z,25.74
2022-08-22T19:38:35.840Z,25.74
2022-08-22T19:41:02.214Z,25.73
2022-08-22T19:43:28.671Z,25.70
2022-08-22T19:45:55.030Z,25.71
2022-08-22T19:48:21.402Z,25.72
2022-08-22T19:50:47.794Z,25.76
2022-08-22T19:53:14.163Z,25.75
2022-08-22T19:55:40.516Z,25.76
2022-08-22T19:58:06.892Z,25.64
2022-08-22T20:00:33.254Z,25.72
2022-08-22T20:02:59.701Z,25.70
2022-08-22T20:05:26.175Z,25.75
2022-08-22T20:07:52.532Z,25.74
2022-08-22T20:10:18.892Z,25.78
2022-08-22T20:12:45.251Z,25.77
2022-08-22T20:15:11.614Z,25.81
2022-08-22T20:17:37.992Z,25.76
2022-08-22T20:20:19.677Z,25.74
2022-08-22T20:22:52.730Z,25.78
2022-08-22T20:25:42.320Z,25.77
2022-08-22T20:28:10.161Z,25.75
2022-08-22T20:30:36.538Z,25.74
2022-08-22T20:33:02.904Z,25.75
2022-08-22T20:35:29.265Z,25.77
2022-08-22T20:38:10.895Z,25.77
2022-08-22T20:40:55.428Z,25.74
2022-08-22T20:43:23.222Z,25.73
2022-08-22T20:45:49.589Z,25.75
2022-08-22T20:48:16.203Z,25.73
2022-08-22T20:50:42.564Z,25.74
2022-08-22T20:53:09.650Z,25.74
2022-08-22T20:55:36.254Z,25.73
2022-08-22T20:58:02.643Z,25.73
2022-08-22T21:00:29.017Z,25.69
2022-08-22T21:02:55.396Z,25.79
2022-08-22T21:05:21.761Z,25.77
2022-08-22T21:07:48.138Z,25.80
2022-08-22T21:10:16.737Z,25.82
2022-08-22T21:12:46.600Z,25.80
2022-08-22T21:15:12.966Z,25.81
2022-08-22T21:17:39.592Z,25.78
2022-08-22T21:20:06.022Z,25.76
2022-08-22T21:22:32.378Z,25.79
2022-08-22T21:24:58.741Z,25.77
2022-08-22T21:27:25.097Z,25.76
2022-08-22T21:29:51.449Z,25.77
2022-08-22T21:32:17.805Z,25.77
2022-08-22T21:34:44.176Z,25.74
2022-08-22T21:37:10.607Z,25.74
2022-08-22T21:39:36.990Z,25.75
2022-08-22T21:42:03.350Z,25.70
2022-08-22T21:44:29.764Z,25.71
2022-08-22T21:46:56.137Z,25.70
2022-08-22T21:49:22.513Z,25.70
2022-08-22T21:51:48.885Z,25.70
2022-08-22T21:54:18.217Z,25.66
2022-08-22T21:56:45.289Z,25.69
2022-08-22T21:59:12.153Z,25.69
2022-08-22T22:01:38.756Z,25.68
2022-08-22T22:04:09.148Z,25.69
2022-08-22T22:06:35.520Z,25.68
2022-08-22T22:09:01.877Z,25.67
2022-08-22T22:11:28.224Z,25.67
2022-08-22T22:13:54.601Z,25.64
2022-08-22T22:16:20.963Z,25.68
2022-08-22T22:18:47.339Z,25.67
2022-08-22T22:21:13.720Z,25.67
2022-08-22T22:23:40.085Z,25.66
2022-08-22T22:26:06.456Z,25.66
2022-08-22T22:28:32.817Z,25.64
2022-08-22T22:30:59.193Z,25.66
2022-08-22T22:33:25.562Z,25.64
2022-08-22T22:35:51.931Z,25.62
2022-08-22T22:38:23.278Z,25.65
2022-08-22T22:40:50.424Z,25.65
2022-08-22T22:43:16.789Z,25.63
2022-08-22T22:45:43.148Z,25.63
2022-08-22T22:48:09.511Z,25.62
2022-08-22T22:50:35.856Z,25.60
2022-08-22T22:53:03.411Z,25.62
2022-08-22T22:55:29.764Z,25.60
2022-08-22T22:57:58.923Z,25.59
2022-08-22T23:00:25.867Z,25.57
2022-08-22T23:02:57.418Z,25.56
2022-08-22T23:05:23.776Z,25.55
2022-08-22T23:07:50.135Z,25.56
2022-08-22T23:10:21.397Z,25.53
2022-08-22T23:12:48.369Z,25.56
2022-08-22T23:15:14.736Z,25.54
2022-08-22T23:17:41.090Z,25.54
2022-08-22T23:20:07.448Z,25.55
2022-08-22T23:22:33.804Z,25.54
2022-08-22T23:25:00.156Z,25.54
2022-08-22T23:27:26.525Z,25.53
2022-08-22T23:29:52.898Z,25.54
2022-08-22T23:32:19.258Z,25.53
2022-08-22T23:34:45.627Z,25.52
2022-08-22T23:37:11.976Z,25.53
2022-08-22T23:39:38.346Z,25.52
2022-08-22T23:42:04.724Z,25.51
2022-08-22T23:44:31.089Z,25.52
2022-08-22T23:46:57.468Z,25.51
2022-08-22T23:49:23.840Z,25.51
2022-08-22T23:51:50.206Z,25.52
2022-08-22T23:54:16.562Z,25.51
2022-08-22T23:56:42.930Z,25.50
2022-08-22T23:59:09.285Z,25.50
